Time;durP1;ratioP1;P1;durP2;ratioP2;P2;SDS_P1;SDS_P2;PMS_P1;PMS_P2;Temp;Humidity;BMP_temperature;BMP_pressure;BME280_temperature;BME280_humidity;BME280_pressure;Samples;Min_cycle;Max_cycle;Signal;HPM_P1;HPM_P2
2022/01/20 00:01:40;;;;;;;9.27;8.37;;;;;;;6.25;62.65;98304.69;8470112;28;20237;-71
2022/01/20 00:06:20;;;;;;;8.57;7.77;;;;;;;6.30;62.75;98314.88;8448260;28;20541;-72
2022/01/20 00:28:11;;;;;;;7.70;7.00;;;;;;;6.49;61.95;98317.88;8391545;28;20229;-71
2022/01/20 00:32:15;;;;;;;7.93;7.13;;;;;;;6.38;62.47;98313.84;8447829;28;20241;-71
2022/01/20 00:40:40;;;;;;;7.63;6.83;;;;;;;6.44;62.20;98321.41;8447077;28;20252;-71
2022/01/20 00:44:43;;;;;;;6.93;6.33;;;;;;;6.26;62.74;98320.09;8447747;28;20233;-71
2022/01/20 00:48:46;;;;;;;6.63;6.03;;;;;;;6.32;61.79;98324.25;8447280;28;20234;-71
2022/01/20 00:52:50;;;;;;;6.73;6.13;;;;;;;6.42;61.94;98328.31;8446714;28;20244;-71
2022/01/20 00:56:53;;;;;;;6.63;6.03;;;;;;;6.23;62.44;98342.47;8448446;28;20237;-71
2022/01/20 01:00:56;;;;;;;6.03;5.50;;;;;;;6.38;62.26;98336.16;8480676;28;20232;-71
2022/01/20 01:04:59;;;;;;;6.50;5.90;;;;;;;6.16;62.56;98349.44;8480846;28;20265;-71
2022/01/20 01:09:05;;;;;;;5.90;5.40;;;;;;;6.09;63.47;98347.03;8487466;28;20247;-71
2022/01/20 01:13:11;;;;;;;5.43;4.97;;;;;;;5.95;63.45;98348.13;8487851;28;20256;-71
2022/01/20 01:21:44;;;;;;;5.53;5.03;;;;;;;6.26;63.21;98360.38;8479210;27;20415;-71
2022/01/20 01:25:49;;;;;;;5.20;4.70;;;;;;;6.11;63.48;98343.56;8487528;28;20233;-71
2022/01/20 01:30:17;;;;;;;5.07;4.40;;;;;;;6.17;63.59;98358.00;8487580;28;20229;-71
2022/01/20 01:34:22;;;;;;;5.17;4.67;;;;;;;6.14;63.68;98350.34;8487001;28;20225;-71
2022/01/20 01:38:35;;;;;;;5.00;4.60;;;;;;;6.04;63.78;98350.53;8486961;28;20233;-71
2022/01/20 01:42:44;;;;;;;5.67;5.17;;;;;;;5.83;64.55;98349.19;8487416;27;20225;-72
2022/01/20 01:46:49;;;;;;;5.07;4.67;;;;;;;5.85;64.52;98347.44;8488857;28;20206;-72
2022/01/20 01:50:52;;;;;;;4.70;4.30;;;;;;;6.00;64.27;98338.63;8488415;28;20233;-72
2022/01/20 01:54:56;;;;;;;5.07;4.67;;;;;;;6.07;64.21;98342.78;8488127;28;20232;-72
2022/01/20 01:59:00;;;;;;;4.80;4.40;;;;;;;6.17;63.99;98355.41;8486230;28;20240;-72
2022/01/20 02:03:04;;;;;;;5.03;4.53;;;;;;;6.01;64.29;98347.16;8486518;28;20422;-72
2022/01/20 02:07:42;;;;;;;4.80;4.30;;;;;;;6.14;63.67;98346.06;8485933;28;20334;-72
2022/01/20 02:20:30;;;;;;;5.40;4.90;;;;;;;6.19;64.59;98343.41;8485098;28;20245;-71
2022/01/20 02:24:33;;;;;;;5.40;4.90;;;;;;;6.18;64.01;98341.69;8485197;28;20426;-72
2022/01/20 02:28:37;;;;;;;5.13;4.63;;;;;;;6.18;64.24;98344.25;8485278;27;20235;-72
2022/01/20 02:32:39;;;;;;;5.13;4.70;;;;;;;6.39;63.93;98346.38;8485017;27;20225;-72
2022/01/20 02:36:46;;;;;;;5.23;4.73;;;;;;;6.41;63.40;98362.63;8485307;28;20248;-72
2022/01/20 02:45:13;;;;;;;4.47;4.07;;;;;;;6.25;63.74;98356.97;8467328;27;20535;-71
2022/01/20 02:49:17;;;;;;;4.10;3.80;;;;;;;6.36;63.37;98349.03;8484568;27;20548;-72
2022/01/20 02:53:22;;;;;;;4.33;4.00;;;;;;;6.18;63.60;98345.09;8484614;28;20225;-71
2022/01/20 02:57:25;;;;;;;4.40;4.00;;;;;;;6.55;63.05;98344.34;8484340;28;20248;-71
2022/01/20 03:01:28;;;;;;;4.07;3.77;;;;;;;6.55;62.62;98344.34;8484342;28;20540;-72
2022/01/20 03:05:31;;;;;;;4.60;4.20;;;;;;;6.41;62.95;98336.91;8483949;28;20237;-73
2022/01/20 03:09:36;;;;;;;4.60;4.20;;;;;;;6.48;63.13;98345.34;8483865;28;20237;-72
2022/01/20 03:13:40;;;;;;;4.90;4.47;;;;;;;6.60;62.39;98341.66;8483863;27;20229;-72
2022/01/20 03:17:43;;;;;;;5.03;4.53;;;;;;;6.28;63.35;98335.47;8483874;28;20240;-71
2022/01/20 03:21:46;;;;;;;5.00;4.30;;;;;;;6.45;63.41;98335.97;8484096;27;20232;-72
2022/01/20 03:25:50;;;;;;;4.73;4.33;;;;;;;6.12;63.80;98334.94;8483621;28;20229;-72
2022/01/20 03:29:53;;;;;;;4.10;3.80;;;;;;;5.88;64.94;98326.84;8467889;28;20230;-71
2022/01/20 03:33:56;;;;;;;4.20;3.80;;;;;;;6.12;63.90;98316.13;8449621;28;20226;-72
2022/01/20 03:37:59;;;;;;;3.83;3.43;;;;;;;6.14;63.56;98324.63;8449579;28;20230;-71
2022/01/20 03:42:05;;;;;;;3.73;3.43;;;;;;;6.16;63.60;98321.16;8449022;28;20232;-71
2022/01/20 03:46:12;;;;;;;3.67;3.37;;;;;;;6.28;63.67;98327.75;8449202;28;20233;-71
2022/01/20 03:54:32;;;;;;;3.40;3.10;;;;;;;6.17;63.79;98312.56;8448459;28;20500;-72
2022/01/20 03:58:37;;;;;;;3.50;3.23;;;;;;;6.27;62.75;98310.63;8464576;28;20332;-72
2022/01/20 04:02:40;;;;;;;3.90;3.57;;;;;;;5.93;64.31;98315.59;8465145;28;20428;-72
2022/01/20 04:06:44;;;;;;;3.93;3.63;;;;;;;6.09;63.58;98317.00;8448578;28;20393;-72
2022/01/20 04:10:46;;;;;;;3.93;3.50;;;;;;;5.99;64.59;98308.63;8448619;28;20236;-71
2022/01/20 04:14:51;;;;;;;4.37;3.90;;;;;;;6.19;64.42;98321.09;8448419;28;20230;-72
2022/01/20 04:18:56;;;;;;;4.77;3.83;;;;;;;6.13;63.87;98310.94;8448252;28;20230;-72
2022/01/20 04:23:00;;;;;;;5.60;3.83;;;;;;;6.23;63.89;98315.00;8448032;28;20237;-71
2022/01/20 04:27:04;;;;;;;4.33;3.93;;;;;;;6.43;63.47;98303.44;8448195;28;20230;-72
2022/01/20 04:31:08;;;;;;;4.70;4.20;;;;;;;6.48;63.20;98303.34;8447964;28;20226;-71
2022/01/20 04:35:12;;;;;;;4.63;4.23;;;;;;;6.20;63.91;98307.34;8447878;28;20236;-72
2022/01/20 04:39:20;;;;;;;4.83;4.10;;;;;;;6.26;63.97;98311.50;8447309;28;20237;-71
2022/01/20 04:43:24;;;;;;;4.67;4.03;;;;;;;6.56;63.71;98314.28;8447758;28;20230;-72
2022/01/20 04:47:36;;;;;;;5.33;4.63;;;;;;;6.50;63.39;98309.28;8447746;28;20249;-71
2022/01/20 05:00:21;;;;;;;5.00;4.50;;;;;;;6.53;63.15;98299.78;8461804;28;20226;-71
2022/01/20 05:04:26;;;;;;;6.53;4.67;;;;;;;6.54;63.08;98303.19;8446643;28;20545;-72
2022/01/20 05:08:31;;;;;;;7.17;6.13;;;;;;;6.59;63.33;98303.94;8444311;28;20545;-71
2022/01/20 05:12:49;;;;;;;6.33;4.73;;;;;;;6.59;63.23;98302.22;8447000;28;20233;-72
2022/01/20 05:16:53;;;;;;;5.73;4.70;;;;;;;6.49;62.92;98303.28;8447592;28;20242;-71
2022/01/20 05:20:58;;;;;;;6.17;4.70;;;;;;;6.60;62.74;98305.63;8446668;28;20225;-71
2022/01/20 05:25:02;;;;;;;6.73;4.73;;;;;;;6.54;63.12;98310.91;8447044;28;20237;-71
2022/01/20 05:29:05;;;;;;;6.23;4.83;;;;;;;6.71;62.44;98310.53;8446827;28;20237;-71
2022/01/20 05:33:08;;;;;;;6.63;4.93;;;;;;;6.56;63.05;98320.28;8446574;28;20233;-71
2022/01/20 05:37:13;;;;;;;7.57;4.80;;;;;;;6.51;63.59;98318.69;8446401;28;20238;-71
2022/01/20 05:41:16;;;;;;;6.47;4.73;;;;;;;6.30;63.96;98312.28;8446652;28;20225;-71
2022/01/20 05:45:19;;;;;;;6.43;5.00;;;;;;;6.16;64.04;98305.72;8446607;28;20230;-71
2022/01/20 05:49:22;;;;;;;7.90;4.90;;;;;;;6.49;63.50;98307.59;8446282;28;20249;-71
2022/01/20 05:53:27;;;;;;;9.93;5.40;;;;;;;6.45;63.22;98299.09;8448298;28;20233;-71
2022/01/20 05:57:29;;;;;;;9.73;5.77;;;;;;;6.29;63.75;98302.91;8454123;28;20411;-71
2022/01/20 06:01:36;;;;;;;10.43;5.50;;;;;;;6.29;63.28;98290.03;8452211;28;20400;-71
2022/01/20 06:05:41;;;;;;;10.13;5.63;;;;;;;6.44;62.65;98300.81;8452208;28;20234;-72
2022/01/20 06:09:45;;;;;;;11.10;5.37;;;;;;;6.44;62.78;98293.09;8452062;28;20238;-71
2022/01/20 06:13:48;;;;;;;9.57;5.13;;;;;;;6.51;62.09;98310.97;8449373;28;20605;-72
2022/01/20 06:17:51;;;;;;;6.90;5.10;;;;;;;6.48;62.33;98309.31;8451855;28;20242;-71
2022/01/20 06:21:54;;;;;;;8.03;5.10;;;;;;;6.35;62.01;98303.59;8451947;28;20237;-70
2022/01/20 06:26:04;;;;;;;9.40;5.57;;;;;;;6.51;61.39;98308.41;8451598;28;20237;-71
2022/01/20 06:30:09;;;;;;;9.87;4.77;;;;;;;6.29;62.14;98287.47;8451853;28;20240;-71
2022/01/20 06:34:12;;;;;;;7.90;4.57;;;;;;;6.33;61.86;98291.66;8451814;28;20225;-71
2022/01/20 06:38:15;;;;;;;7.17;4.40;;;;;;;6.25;62.02;98287.53;8451229;28;20230;-71
2022/01/20 06:42:20;;;;;;;6.40;4.50;;;;;;;6.09;62.30;98299.00;8451368;28;20232;-71
2022/01/20 06:46:23;;;;;;;8.33;4.53;;;;;;;6.13;62.00;98287.81;8451738;28;20225;-72
2022/01/20 06:50:26;;;;;;;10.03;4.53;;;;;;;6.24;61.86;98297.84;8450997;28;20245;-71
2022/01/20 06:54:29;;;;;;;7.07;4.30;;;;;;;6.17;61.96;98294.56;8450819;28;20233;-71
2022/01/20 06:58:34;;;;;;;8.80;4.47;;;;;;;6.24;62.00;98296.13;8465849;28;20398;-71
2022/01/20 07:02:37;;;;;;;10.60;4.50;;;;;;;6.40;61.60;98303.50;8483995;27;20234;-71
2022/01/20 07:06:41;;;;;;;10.50;4.90;;;;;;;6.29;61.48;98303.75;8483810;28;20292;-71
2022/01/20 07:10:44;;;;;;;9.40;4.73;;;;;;;6.36;61.60;98307.00;8484126;27;20442;-71
2022/01/20 07:14:49;;;;;;;9.47;5.20;;;;;;;6.38;61.79;98310.41;8484023;28;20445;-71
2022/01/20 07:18:52;;;;;;;8.70;4.10;;;;;;;6.47;61.04;98323.06;8483769;28;20233;-71
2022/01/20 07:22:55;;;;;;;9.43;5.13;;;;;;;6.46;60.51;98327.38;8483874;27;20518;-71
2022/01/20 07:26:58;;;;;;;12.83;5.70;;;;;;;6.41;60.80;98338.63;8483723;28;20225;-71
2022/01/20 07:31:03;;;;;;;12.77;6.10;;;;;;;6.38;60.75;98342.13;8483601;28;20225;-71
2022/01/20 07:35:08;;;;;;;13.83;5.70;;;;;;;6.19;61.96;98351.13;8483660;28;20434;-71
2022/01/20 07:39:11;;;;;;;14.70;6.37;;;;;;;6.32;61.30;98369.69;8482962;28;20234;-71
2022/01/20 07:43:14;;;;;;;12.90;6.27;;;;;;;6.37;61.30;98360.16;8483036;28;20229;-71
2022/01/20 07:47:18;;;;;;;17.63;6.13;;;;;;;6.14;61.36;98379.47;8482822;28;20232;-71
2022/01/20 07:51:21;;;;;;;13.20;5.57;;;;;;;6.16;62.03;98377.72;8482678;28;20237;-71
2022/01/20 07:55:25;;;;;;;11.23;5.57;;;;;;;6.24;60.99;98369.84;8482536;27;20235;-71
2022/01/20 07:59:28;;;;;;;13.20;5.73;;;;;;;6.16;61.35;98362.28;8482312;28;20236;-71
2022/01/20 08:03:32;;;;;;;10.60;5.43;;;;;;;6.26;60.82;98371.53;8482227;28;20237;-71
2022/01/20 08:07:35;;;;;;;16.10;5.90;;;;;;;6.50;60.12;98369.31;8481975;28;20244;-71
2022/01/20 08:11:38;;;;;;;13.60;4.90;;;;;;;6.31;60.35;98373.16;8482374;28;20410;-71
2022/01/20 08:15:41;;;;;;;15.23;5.60;;;;;;;6.26;60.37;98380.94;8481635;28;20230;-71
2022/01/20 08:19:46;;;;;;;9.37;4.90;;;;;;;6.45;60.37;98384.00;8481945;28;20334;-71
2022/01/20 08:23:49;;;;;;;11.70;5.03;;;;;;;6.34;60.83;98373.94;8482168;28;20440;-71
2022/01/20 08:27:52;;;;;;;11.30;4.63;;;;;;;6.57;60.19;98370.88;8482165;28;20416;-71
2022/01/20 08:31:56;;;;;;;12.30;4.67;;;;;;;6.38;60.61;98387.59;8481457;27;20296;-71
2022/01/20 08:36:00;;;;;;;16.27;5.00;;;;;;;6.26;60.75;98384.41;8481503;28;20232;-71
2022/01/20 08:40:08;;;;;;;14.33;5.20;;;;;;;6.50;60.66;98374.47;8481289;28;20229;-71
2022/01/20 08:44:11;;;;;;;12.47;4.67;;;;;;;6.34;60.84;98375.66;8481199;28;20228;-71
2022/01/20 08:48:14;;;;;;;11.83;5.10;;;;;;;6.59;60.21;98378.56;8481284;28;20225;-71
2022/01/20 08:52:21;;;;;;;10.00;4.33;;;;;;;6.41;60.80;98396.06;8481092;28;20419;-71
2022/01/20 08:56:24;;;;;;;11.33;4.50;;;;;;;6.60;60.76;98400.84;8481021;27;20233;-71
2022/01/20 09:00:29;;;;;;;12.97;4.80;;;;;;;6.62;61.18;98402.50;8480625;28;20225;-71
2022/01/20 09:04:32;;;;;;;11.17;4.30;;;;;;;6.72;60.57;98386.84;8480470;28;20240;-71
2022/01/20 09:08:36;;;;;;;12.57;4.27;;;;;;;6.63;60.65;98388.75;8480667;28;20233;-71
2022/01/20 09:17:14;;;;;;;17.77;5.20;;;;;;;9.36;73.55;98383.97;8410355;28;20237;-80
2022/01/20 09:21:21;;;;;;;12.43;4.43;;;;;;;9.16;59.14;98361.38;8441951;28;20566;-79
2022/01/20 09:25:26;;;;;;;10.97;3.80;;;;;;;10.23;60.15;98353.41;8480990;28;20244;-77
2022/01/20 09:29:29;;;;;;;10.67;3.73;;;;;;;9.28;53.64;98358.41;8481368;27;20445;-70
2022/01/20 09:33:33;;;;;;;12.40;4.27;;;;;;;8.14;55.40;98366.13;8452436;28;20225;-73
2022/01/20 09:37:38;;;;;;;11.97;3.77;;;;;;;7.61;57.00;98370.09;8453239;28;20400;-73
2022/01/20 09:41:43;;;;;;;10.43;3.53;;;;;;;7.44;57.82;98367.13;8453423;28;20234;-71
2022/01/20 09:45:50;;;;;;;11.00;3.40;;;;;;;7.34;57.46;98402.56;8452897;28;20285;-72
2022/01/20 09:49:54;;;;;;;10.23;3.57;;;;;;;6.99;59.76;98404.28;8453301;28;20422;-70
2022/01/20 09:53:57;;;;;;;12.67;4.13;;;;;;;7.04;59.43;98417.03;8452992;28;20233;-71
2022/01/20 09:58:02;;;;;;;11.00;3.40;;;;;;;7.03;58.89;98394.75;8463925;28;20222;-70
2022/01/20 10:02:09;;;;;;;10.67;3.33;;;;;;;7.19;58.85;98401.22;8474456;28;20230;-70
2022/01/20 10:06:12;;;;;;;9.20;3.50;;;;;;;6.93;59.13;98398.41;8452458;28;20448;-69
2022/01/20 10:10:15;;;;;;;11.17;3.17;;;;;;;6.93;59.58;98393.25;8452338;28;20237;-69
2022/01/20 10:14:20;;;;;;;8.50;3.17;;;;;;;6.87;59.40;98383.09;8451551;28;20226;-70
2022/01/20 10:18:23;;;;;;;11.93;3.63;;;;;;;7.15;63.75;98407.31;8451841;28;20230;-69
2022/01/20 10:22:26;;;;;;;8.63;3.37;;;;;;;6.91;59.43;98401.03;8451670;28;20226;-70
2022/01/20 10:26:29;;;;;;;7.60;2.97;;;;;;;6.72;59.60;98416.03;8451889;28;20236;-69
2022/01/20 10:30:36;;;;;;;7.10;2.70;;;;;;;6.78;59.66;98433.06;8451084;28;20226;-70
2022/01/20 10:34:39;;;;;;;6.90;2.30;;;;;;;5.53;59.35;98484.19;8451457;28;20226;-69
2022/01/20 10:38:52;;;;;;;10.50;2.67;;;;;;;5.05;59.82;98468.66;8450687;28;20232;-70
2022/01/20 10:42:55;;;;;;;5.37;1.70;;;;;;;5.01;60.70;98496.09;8451256;28;20537;-70
2022/01/20 10:47:00;;;;;;;6.57;1.90;;;;;;;4.88;60.17;98490.25;8450973;28;20226;-70
2022/01/20 10:51:03;;;;;;;6.80;1.83;;;;;;;4.86;60.61;98481.75;8451186;28;20230;-71
2022/01/20 10:55:09;;;;;;;9.33;2.20;;;;;;;5.08;60.33;98489.13;8451044;28;20563;-71
2022/01/20 10:59:12;;;;;;;6.70;2.00;;;;;;;4.94;61.40;98476.50;8450774;28;20245;-70
2022/01/20 11:03:17;;;;;;;8.33;2.17;;;;;;;4.41;61.59;98472.88;8450711;28;20282;-70
2022/01/20 11:07:20;;;;;;;9.30;2.13;;;;;;;4.88;60.58;98474.88;8450619;28;20341;-71
2022/01/20 11:11:24;;;;;;;7.10;2.03;;;;;;;5.07;59.62;98466.91;8450526;28;20249;-70
2022/01/20 11:15:29;;;;;;;4.03;1.90;;;;;;;5.46;59.25;98462.91;8449326;28;20225;-70
2022/01/20 11:19:37;;;;;;;5.00;2.10;;;;;;;5.94;58.35;98472.41;8449978;28;20521;-70
2022/01/20 11:23:41;;;;;;;7.97;2.70;;;;;;;5.86;58.42;98469.09;8450452;28;20229;-70
2022/01/20 11:27:44;;;;;;;8.33;4.60;;;;;;;6.25;57.00;98446.16;8449520;28;20234;-70
2022/01/20 11:31:48;;;;;;;6.40;2.97;;;;;;;6.32;56.03;98454.56;8449464;28;20241;-68
2022/01/20 11:36:23;;;;;;;14.70;7.17;;;;;;;6.16;55.95;98464.31;8449816;28;20229;-71
2022/01/20 11:40:55;;;;;;;13.50;7.17;;;;;;;6.60;54.98;98465.19;8449108;28;20237;-72
2022/01/20 11:44:58;;;;;;;8.67;4.67;;;;;;;6.66;55.40;98467.63;8449141;28;20226;-72
2022/01/20 11:49:06;;;;;;;6.17;2.43;;;;;;;6.59;54.42;98472.06;8448836;28;20233;-72
2022/01/20 11:53:12;;;;;;;5.77;2.23;;;;;;;6.85;54.61;98468.94;8447969;28;20226;-72
2022/01/20 11:57:17;;;;;;;8.03;2.73;;;;;;;6.98;54.26;98466.09;8453474;28;20513;-72
2022/01/20 12:01:20;;;;;;;5.50;2.17;;;;;;;6.86;54.55;98464.63;8455122;27;20230;-72
2022/01/20 12:05:27;;;;;;;6.73;2.53;;;;;;;6.92;53.66;98453.38;8448575;28;20234;-70
2022/01/20 12:09:34;;;;;;;10.70;2.83;;;;;;;7.00;54.22;98447.16;8448609;28;20226;-71
2022/01/20 12:13:46;;;;;;;5.90;2.10;;;;;;;7.23;53.51;98454.38;8447838;28;20424;-72
2022/01/20 12:17:49;;;;;;;9.10;3.40;;;;;;;7.38;54.28;98455.72;8448104;28;20237;-70
2022/01/20 12:21:54;;;;;;;9.90;3.42;;;;;;;7.44;53.65;98453.03;8447552;28;20461;-70
2022/01/20 12:26:04;;;;;;;8.97;3.27;;;;;;;7.24;53.43;98461.22;8448024;28;20244;-70
2022/01/20 12:30:17;;;;;;;11.80;3.67;;;;;;;7.46;53.57;98462.44;8447663;28;20537;-71
2022/01/20 12:34:20;;;;;;;9.70;2.67;;;;;;;7.52;53.94;98458.00;8447790;28;20237;-69
2022/01/20 12:38:26;;;;;;;7.30;2.53;;;;;;;7.74;52.73;98452.31;8447808;28;20578;-70
2022/01/20 12:42:35;;;;;;;8.73;2.97;;;;;;;7.73;53.17;98461.78;8447933;28;20274;-68
2022/01/20 12:46:41;;;;;;;9.53;2.27;;;;;;;7.52;52.39;98452.84;8446663;28;20237;-69
2022/01/20 12:50:56;;;;;;;12.03;2.70;;;;;;;7.18;52.81;98458.78;8447313;28;20541;-67
2022/01/20 12:54:59;;;;;;;12.57;3.87;;;;;;;7.21;53.13;98473.31;8447487;28;20414;-68
2022/01/20 12:59:04;;;;;;;10.57;3.33;;;;;;;7.51;53.02;98463.19;8462967;28;20276;-68
2022/01/20 13:03:22;;;;;;;9.90;2.63;;;;;;;7.75;52.02;98465.16;8446571;28;20229;-68
2022/01/20 13:07:25;;;;;;;9.23;2.70;;;;;;;7.67;52.72;98459.31;8447061;28;20232;-68
2022/01/20 13:11:30;;;;;;;10.73;2.80;;;;;;;7.70;51.32;98453.28;8447315;28;20405;-69
2022/01/20 13:15:35;;;;;;;9.63;2.50;;;;;;;7.09;51.93;98458.16;8446547;28;20226;-68
2022/01/20 13:19:39;;;;;;;9.20;2.73;;;;;;;6.97;50.45;98477.28;8446583;28;20234;-68
2022/01/20 13:23:55;;;;;;;12.13;2.90;;;;;;;6.50;51.08;98468.81;8446699;28;20240;-68
2022/01/20 13:28:00;;;;;;;7.40;2.27;;;;;;;6.36;50.84;98481.94;8447036;28;20244;-67
2022/01/20 13:32:05;;;;;;;10.43;2.27;;;;;;;6.42;50.35;98492.13;8446806;28;20462;-68
2022/01/20 13:36:08;;;;;;;11.23;2.47;;;;;;;6.32;50.84;98486.31;8446648;28;20235;-68
2022/01/20 13:40:11;;;;;;;8.97;2.37;;;;;;;6.69;51.52;98475.28;8446618;28;20237;-68
2022/01/20 13:48:36;;;;;;;9.20;2.60;;;;;;;6.64;52.11;98472.81;8446080;28;20253;-68
2022/01/20 13:52:39;;;;;;;8.47;2.67;;;;;;;6.71;52.30;98460.66;8446409;28;20555;-68
2022/01/20 13:56:51;;;;;;;9.67;3.07;;;;;;;6.65;53.28;98447.91;8446350;28;20230;-74
2022/01/20 14:00:55;;;;;;;8.53;2.23;;;;;;;6.73;51.64;98465.78;8480180;28;20257;-69
2022/01/20 14:05:00;;;;;;;4.80;1.83;;;;;;;6.46;51.31;98474.03;8479953;28;20292;-69
2022/01/20 14:09:03;;;;;;;7.30;1.97;;;;;;;6.45;50.14;98492.94;8479928;28;20236;-68
2022/01/20 14:13:06;;;;;;;8.93;2.27;;;;;;;6.89;49.94;98494.63;8480041;28;20571;-68
2022/01/20 14:17:17;;;;;;;7.70;2.50;;;;;;;6.12;50.65;98508.97;8486132;27;20235;-70
2022/01/20 14:21:21;;;;;;;7.13;2.30;;;;;;;5.61;55.10;98536.31;8485816;28;20230;-69
2022/01/20 14:25:29;;;;;;;9.57;1.97;;;;;;;5.63;56.16;98521.72;8485608;28;20344;-68
2022/01/20 14:29:32;;;;;;;5.87;1.83;;;;;;;5.75;54.74;98542.97;8485683;27;20225;-69
2022/01/20 14:33:35;;;;;;;6.90;2.10;;;;;;;6.16;54.38;98539.75;8485590;28;20298;-68
2022/01/20 14:37:40;;;;;;;6.73;2.03;;;;;;;6.78;52.87;98542.03;8485561;28;20229;-68
2022/01/20 14:41:43;;;;;;;9.33;2.37;;;;;;;6.78;52.07;98536.03;8485447;28;20552;-68
2022/01/20 14:45:46;;;;;;;6.63;2.17;;;;;;;6.78;52.03;98534.31;8485439;28;20529;-67
2022/01/20 14:49:49;;;;;;;9.10;2.23;;;;;;;6.62;51.75;98533.75;8485281;27;20240;-69
2022/01/20 14:53:53;;;;;;;5.93;2.23;;;;;;;6.75;51.45;98534.34;8454665;28;20574;-69
2022/01/20 14:57:57;;;;;;;8.47;2.47;;;;;;;6.57;52.01;98534.75;8461150;27;20528;-68
2022/01/20 15:02:00;;;;;;;10.57;2.60;;;;;;;6.60;51.54;98530.34;8484517;27;20229;-69
2022/01/20 15:06:03;;;;;;;7.63;2.40;;;;;;;5.56;54.19;98524.41;8484389;28;20540;-68
2022/01/20 15:10:09;;;;;;;8.63;2.30;;;;;;;5.53;55.46;98529.59;8484476;28;20229;-69
2022/01/20 15:14:11;;;;;;;9.23;2.37;;;;;;;5.63;54.23;98534.56;8484410;27;20414;-68
2022/01/20 15:18:15;;;;;;;4.37;1.60;;;;;;;5.74;53.65;98546.41;8484185;28;20289;-69
2022/01/20 15:22:31;;;;;;;8.37;3.13;;;;;;;5.83;52.76;98536.00;8483499;28;20270;-71
2022/01/20 15:26:36;;;;;;;6.57;2.27;;;;;;;5.96;52.12;98550.38;8477754;28;20237;-69
2022/01/20 15:30:39;;;;;;;7.13;2.00;;;;;;;5.87;52.88;98548.75;8447862;28;20291;-69
2022/01/20 15:34:42;;;;;;;8.07;3.22;;;;;;;6.33;51.36;98556.63;8449241;28;20407;-69
2022/01/20 15:38:45;;;;;;;7.47;2.20;;;;;;;6.01;52.68;98553.69;8449923;28;20230;-69
2022/01/20 15:42:50;;;;;;;5.00;2.70;;;;;;;6.12;52.38;98544.97;8449314;28;20238;-69
2022/01/20 15:46:53;;;;;;;12.43;4.70;;;;;;;6.04;52.22;98560.53;8448677;28;20230;-69
2022/01/20 15:50:56;;;;;;;9.83;3.60;;;;;;;5.95;52.04;98552.94;8449203;28;20513;-69
2022/01/20 15:55:00;;;;;;;11.27;5.20;;;;;;;5.82;52.62;98558.25;8449107;28;20427;-69
2022/01/20 15:59:04;;;;;;;10.27;5.37;;;;;;;5.93;52.08;98555.53;8468569;28;20225;-69
2022/01/20 16:03:07;;;;;;;6.03;2.67;;;;;;;5.78;52.31;98553.19;8482301;28;20236;-69
2022/01/20 16:07:10;;;;;;;10.77;3.67;;;;;;;5.84;52.17;98555.66;8450014;28;20285;-69
2022/01/20 16:11:14;;;;;;;8.93;3.10;;;;;;;5.49;52.42;98567.34;8447779;28;20229;-69
2022/01/20 16:15:18;;;;;;;7.23;2.27;;;;;;;5.23;55.60;98535.16;8447739;28;20226;-69
2022/01/20 16:19:21;;;;;;;5.03;1.83;;;;;;;5.28;54.98;98559.06;8447028;28;20288;-69
2022/01/20 16:23:24;;;;;;;4.73;2.00;;;;;;;5.35;54.62;98570.09;8447153;28;20222;-70
2022/01/20 16:27:27;;;;;;;5.83;2.43;;;;;;;5.48;53.70;98568.19;8447076;28;20425;-70
2022/01/20 16:31:33;;;;;;;7.60;2.80;;;;;;;5.22;53.53;98579.69;8446965;28;20233;-69
2022/01/20 16:35:36;;;;;;;3.53;2.03;;;;;;;5.34;54.14;98591.50;8446566;28;20226;-70
2022/01/20 16:39:39;;;;;;;6.37;2.80;;;;;;;5.42;53.52;98583.69;8446204;28;20226;-70
2022/01/20 16:43:42;;;;;;;9.83;3.67;;;;;;;5.41;53.62;98594.88;8445708;28;20230;-70
2022/01/20 16:47:47;;;;;;;6.97;2.87;;;;;;;5.58;53.10;98595.47;8446648;28;20408;-70
2022/01/20 16:51:54;;;;;;;5.50;2.63;;;;;;;5.18;54.09;98595.13;8444415;28;20418;-70
2022/01/20 16:55:56;;;;;;;7.33;3.13;;;;;;;5.32;53.57;98595.81;8447166;28;20269;-69
2022/01/20 17:00:00;;;;;;;17.53;6.20;;;;;;;5.31;53.28;98600.97;8474954;28;20301;-69
2022/01/20 17:04:04;;;;;;;8.50;3.43;;;;;;;5.21;53.09;98598.50;8480841;28;20233;-69
2022/01/20 17:08:07;;;;;;;10.63;4.03;;;;;;;5.45;51.93;98604.22;8480841;28;20252;-70
2022/01/20 17:12:12;;;;;;;9.30;3.50;;;;;;;5.04;52.31;98592.75;8468359;28;20245;-69
2022/01/20 17:16:15;;;;;;;7.23;2.87;;;;;;;5.45;51.09;98576.81;8447027;28;20226;-69
2022/01/20 17:20:19;;;;;;;13.87;5.90;;;;;;;5.53;50.57;98593.84;8448621;28;20526;-69
2022/01/20 17:24:22;;;;;;;14.63;6.43;;;;;;;5.47;50.60;98607.63;8448343;28;20237;-69
2022/01/20 17:28:26;;;;;;;7.30;4.17;;;;;;;5.36;50.96;98607.75;8447297;28;20226;-70
2022/01/20 17:32:29;;;;;;;6.60;3.23;;;;;;;5.34;50.45;98603.50;8446922;28;20429;-69
2022/01/20 17:36:33;;;;;;;7.47;3.63;;;;;;;5.28;50.66;98596.75;8446081;28;20264;-70
2022/01/20 17:40:38;;;;;;;9.60;3.97;;;;;;;5.18;51.16;98613.97;8446738;28;20547;-70
2022/01/20 17:44:41;;;;;;;7.83;3.47;;;;;;;5.28;51.15;98612.16;8446615;28;20241;-69
2022/01/20 17:48:44;;;;;;;7.17;3.30;;;;;;;5.16;50.53;98613.16;8447474;28;20813;-69
2022/01/20 17:52:49;;;;;;;7.57;2.87;;;;;;;4.90;50.79;98624.56;8455632;28;20267;-70
2022/01/20 17:56:53;;;;;;;9.23;3.47;;;;;;;5.25;50.73;98619.88;8454148;28;20242;-69
2022/01/20 18:00:56;;;;;;;10.93;4.60;;;;;;;5.30;50.69;98625.81;8486174;28;20229;-69
2022/01/20 18:04:59;;;;;;;8.63;4.07;;;;;;;5.28;50.10;98619.84;8486009;27;20528;-69
2022/01/20 18:09:04;;;;;;;13.37;5.07;;;;;;;5.33;50.17;98627.47;8486113;28;20232;-68
2022/01/20 18:13:07;;;;;;;9.37;3.60;;;;;;;4.94;50.85;98607.41;8485991;28;20548;-68
2022/01/20 18:17:10;;;;;;;9.43;4.57;;;;;;;5.31;50.96;98629.22;8486127;28;20241;-68
2022/01/20 18:21:13;;;;;;;10.90;3.90;;;;;;;4.76;51.57;98623.00;8485895;28;20225;-68
2022/01/20 18:25:17;;;;;;;10.40;3.90;;;;;;;4.94;52.03;98629.66;8485515;28;20229;-68
2022/01/20 18:29:21;;;;;;;10.53;4.53;;;;;;;4.79;51.22;98634.09;8485306;27;20225;-68
2022/01/20 18:33:24;;;;;;;9.27;3.60;;;;;;;4.63;51.67;98633.41;8485501;27;20289;-68
2022/01/20 18:37:27;;;;;;;10.47;3.90;;;;;;;4.69;52.19;98651.28;8485378;27;20229;-68
2022/01/20 18:41:32;;;;;;;10.47;3.67;;;;;;;4.62;52.43;98644.50;8485011;27;20232;-68
2022/01/20 18:45:35;;;;;;;8.20;3.67;;;;;;;4.99;52.36;98658.69;8484699;27;20411;-68
2022/01/20 18:49:38;;;;;;;9.93;3.33;;;;;;;5.06;52.59;98660.31;8461530;28;20232;-68
2022/01/20 18:53:41;;;;;;;9.60;3.17;;;;;;;4.72;52.65;98649.56;8450756;28;20245;-74
2022/01/20 18:57:46;;;;;;;7.40;3.30;;;;;;;4.80;52.80;98640.94;8450879;28;20232;-68
2022/01/20 19:01:49;;;;;;;8.83;3.10;;;;;;;4.92;52.37;98633.97;8450447;28;20379;-68
2022/01/20 19:05:52;;;;;;;9.90;2.83;;;;;;;4.80;52.71;98628.09;8450814;28;20245;-68
2022/01/20 19:09:55;;;;;;;11.30;3.80;;;;;;;5.02;52.74;98643.25;8450523;28;20232;-68
2022/01/20 19:14:00;;;;;;;9.23;3.33;;;;;;;5.06;52.64;98642.34;8423951;28;20230;-68
2022/01/20 19:18:03;;;;;;;8.73;3.40;;;;;;;5.07;52.43;98655.19;8416941;28;20231;-68
2022/01/20 19:22:06;;;;;;;8.33;3.43;;;;;;;5.05;52.43;98646.66;8417030;28;20231;-68
2022/01/20 19:26:11;;;;;;;7.23;3.30;;;;;;;4.71;53.75;98656.41;8423361;28;20289;-69
2022/01/20 19:30:15;;;;;;;13.43;4.77;;;;;;;8.38;63.57;98644.16;8449682;28;20226;-67
2022/01/20 19:34:19;;;;;;;12.03;4.03;;;;;;;7.08;49.40;98634.16;8447593;28;20226;-73
2022/01/20 19:38:23;;;;;;;13.30;4.20;;;;;;;5.79;52.29;98662.88;8425538;28;20521;-69
2022/01/20 19:42:28;;;;;;;12.83;4.47;;;;;;;5.38;53.38;98667.66;8447858;28;20596;-69
2022/01/20 19:46:33;;;;;;;9.57;4.03;;;;;;;5.42;53.48;98666.75;8447516;28;20245;-71
2022/01/20 19:50:37;;;;;;;9.73;3.87;;;;;;;5.15;54.72;98672.22;8448182;28;20233;-70
2022/01/20 19:54:41;;;;;;;11.00;4.20;;;;;;;4.94;54.94;98669.00;8448488;28;20238;-69
2022/01/20 19:58:44;;;;;;;12.43;4.07;;;;;;;4.75;55.75;98667.50;8448648;28;20230;-69
2022/01/20 20:02:49;;;;;;;13.70;4.27;;;;;;;5.07;55.60;98680.00;8449000;28;20490;-72
2022/01/20 20:06:53;;;;;;;11.73;4.43;;;;;;;5.09;55.96;98680.84;8445900;28;20223;-72
2022/01/20 20:10:56;;;;;;;10.43;4.70;;;;;;;4.68;57.16;98672.69;8448204;28;20237;-71
2022/01/20 20:14:59;;;;;;;14.17;5.43;;;;;;;4.39;57.84;98672.94;8448330;28;20226;-72
2022/01/20 20:19:03;;;;;;;9.57;4.07;;;;;;;4.56;57.32;98680.50;8448268;28;20241;-71
2022/01/20 20:23:06;;;;;;;14.57;4.33;;;;;;;4.59;56.41;98670.22;8447854;28;20545;-71